Tranquility, New Jersey
Current Conditions -  °F | °C
As of 5:53 PM on Wednesday 26 Nov 2014 (Local Time) from KFWN Reporting Station
Light Snow Light Snow  
Wind Chill: 29°   Ceiling: 900
Heat Index: 34°   Visibility: 2mi
Dew Point: 32°   Wind: 6mph
Humidity: 92%   Direction: 40°NE
Pressure: 29.85"   Gusts: NA
Location:  40.96°N, 74.81°W
Report Text: KFWN 262253Z AUTO 04005KT 2SM -SN BR BKN009 OVC013 01/00 A2985 RMK AO2 SLP109 P0006 T00110000
Loading
Personal Weather Stations






























Interactive Weather Map New forecast layout! Learn more

10-Day Weather Forecast

Advertisements
Track Severe Weather on mobile